Map

Track Data

SID SEASON NUMBER BASIN SUBBASIN NAME ISO_TIME NATURE LAT LON WMO_WIND WMO_PRES WMO_AGENCY TRACK_TYPE DIST2LAND LANDFALL IFLAG USA_AGENCY USA_ATCF_ID USA_LAT USA_LON USA_RECORD USA_STATUS USA_WIND USA_PRES USA_SSHS USA_R34_NE USA_R34_SE USA_R34_SW USA_R34_NW USA_R50_NE USA_R50_SE USA_R50_SW USA_R50_NW USA_R64_NE USA_R64_SE USA_R64_SW USA_R64_NW USA_POCI USA_ROCI USA_RMW USA_EYE TOKYO_LAT TOKYO_LON TOKYO_GRADE TOKYO_WIND TOKYO_PRES TOKYO_R50_DIR TOKYO_R50_LONG TOKYO_R50_SHORT TOKYO_R30_DIR TOKYO_R30_LONG TOKYO_R30_SHORT TOKYO_LAND CMA_LAT CMA_LON CMA_CAT CMA_WIND CMA_PRES HKO_LAT HKO_LON HKO_CAT HKO_WIND HKO_PRES NEWDELHI_LAT NEWDELHI_LON NEWDELHI_GRADE NEWDELHI_WIND NEWDELHI_PRES NEWDELHI_CI NEWDELHI_DP NEWDELHI_POCI REUNION_LAT REUNION_LON REUNION_TYPE REUNION_WIND REUNION_PRES REUNION_TNUM REUNION_CI REUNION_RMW REUNION_R34_NE REUNION_R34_SE REUNION_R34_SW REUNION_R34_NW REUNION_R50_NE REUNION_R50_SE REUNION_R50_SW REUNION_R50_NW REUNION_R64_NE REUNION_R64_SE REUNION_R64_SW REUNION_R64_NW BOM_LAT BOM_LON BOM_TYPE BOM_WIND BOM_PRES BOM_TNUM BOM_CI BOM_RMW BOM_R34_NE BOM_R34_SE BOM_R34_SW BOM_R34_NW BOM_R50_NE BOM_R50_SE BOM_R50_SW BOM_R50_NW BOM_R64_NE BOM_R64_SE BOM_R64_SW BOM_R64_NW BOM_ROCI BOM_POCI BOM_EYE BOM_POS_METHOD BOM_PRES_METHOD NADI_LAT NADI_LON NADI_CAT NADI_WIND NADI_PRES WELLINGTON_LAT WELLINGTON_LON WELLINGTON_WIND WELLINGTON_PRES DS824_LAT DS824_LON DS824_STAGE DS824_WIND DS824_PRES TD9636_LAT TD9636_LON TD9636_STAGE TD9636_WIND TD9636_PRES TD9635_LAT TD9635_LON TD9635_WIND TD9635_PRES TD9635_ROCI NEUMANN_LAT NEUMANN_LON NEUMANN_CLASS NEUMANN_WIND NEUMANN_PRES MLC_LAT MLC_LON MLC_CLASS MLC_WIND MLC_PRES USA_GUST BOM_GUST BOM_GUST_PER REUNION_GUST REUNION_GUST_PER USA_SEAHGT USA_SEARAD_NE USA_SEARAD_SE USA_SEARAD_SW USA_SEARAD_NW STORM_SPEED STORM_DIR
1950059S15188 1950 17 SP MM NOT_NAMED 1950-02-28 00:00:00 TS -15.0000 188.200 main 141 141 O________OO___ jtwc_sh SH161950 -15.0000 -171.800 -1 -15.0000 188.200 TC -15.0000 -171.800 2 9 214
1950059S15188 1950 17 SP MM NOT_NAMED 1950-02-28 03:00:00 TS -15.3535 187.955 main 180 179 P________PP___ SH161950 -15.3675 -172.032 -1 -15.3675 -172.032 TC -15.3253 -172.071 2 8 216
1950059S15188 1950 17 SP MM NOT_NAMED 1950-02-28 06:00:00 TS -15.6802 187.682 main 212 212 O________OP___ jtwc_sh SH161950 -15.7000 -172.300 -1 -15.7000 187.700 TC -15.6404 -172.354 2 8 223
1950059S15188 1950 17 SP MM NOT_NAMED 1950-02-28 09:00:00 TS -15.9601 187.362 main 246 246 P________PP___ SH161950 -15.9725 -172.628 -1 -15.9725 -172.628 TC -15.9354 -172.660 2 8 232
1950059S15188 1950 17 SP MM NOT_NAMED 1950-02-28 12:00:00 TS -16.2000 187.000 main 272 272 O________OO___ jtwc_sh SH161950 -16.2000 -173.000 -1 -16.2000 187.000 TC -16.2000 -173.000 2 8 237
1950059S15188 1950 17 SP MM NOT_NAMED 1950-02-28 15:00:00 TS -16.4143 186.625 main 303 303 P________PP___ SH161950 -16.4073 -173.370 -1 -16.4073 -173.370 TC -16.4282 -173.385 2 9 242
1950059S15188 1950 17 SP MM NOT_NAMED 1950-02-28 18:00:00 TS -16.6097 186.192 main 338 338 O________OP___ jtwc_sh SH161950 -16.6000 -173.800 -1 -16.6000 186.200 TC -16.6290 -173.824 2 10 246
1950059S15188 1950 17 SP MM NOT_NAMED 1950-02-28 21:00:00 TS -16.8049 185.693 main 382 382 P________PP___ SH161950 -16.7997 -174.298 -1 -16.7997 -174.298 TC -16.8153 -174.326 2 11 250
1950059S15188 1950 17 SP MM NOT_NAMED 1950-03-01 00:00:00 TS -17.0000 185.100 main 434 434 O________OO___ jtwc_sh SH161950 -17.0000 -174.900 -1 -17.0000 185.100 TC -17.0000 -174.900 2 13 252
1950059S15188 1950 17 SP MM NOT_NAMED 1950-03-01 03:00:00 TS -17.2018 184.388 main 480 409 P________PP___ SH161950 -17.2001 -175.628 -1 -17.2001 -175.628 TC -17.2050 -175.581 2 15 254
1950059S15188 1950 17 SP MM NOT_NAMED 1950-03-01 06:00:00 TS -17.4030 183.624 main 399 331 O________OP___ jtwc_sh SH161950 -17.4000 -176.400 -1 -17.4000 183.600 TC -17.4089 -176.327 2 15 254
1950059S15188 1950 17 SP MM NOT_NAMED 1950-03-01 09:00:00 TS -17.6026 182.885 main 331 268 P________PP___ SH161950 -17.5999 -177.130 -1 -17.5999 -177.130 TC -17.6082 -177.085 2 14 254
1950059S15188 1950 17 SP MM NOT_NAMED 1950-03-01 12:00:00 TS -17.8000 182.200 main 268 224 O________OO___ jtwc_sh SH161950 -17.8000 -177.800 -1 -17.8000 182.200 TC -17.8000 -177.800 2 13 252
1950059S15188 1950 17 SP MM NOT_NAMED 1950-03-01 15:00:00 TS -17.9944 181.615 main 224 200 P________PP___ SH161950 -18.0071 -178.373 -1 -18.0071 -178.373 TC -17.9689 -178.409 2 11 251
1950059S15188 1950 17 SP MM NOT_NAMED 1950-03-01 18:00:00 TS -18.1779 181.077 main 201 183 O________OP___ jtwc_sh SH161950 -18.2000 -178.900 -1 -18.2000 181.100 TC -18.1336 -178.969 2 11 252
1950059S15188 1950 17 SP MM NOT_NAMED 1950-03-01 21:00:00 TS -18.3355 180.530 main 179 144 P________PP___ SH161950 -18.3499 -179.458 -1 -18.3499 -179.458 TC -18.3066 -179.494 2 11 253
1950059S15188 1950 17 SP MM NOT_NAMED 1950-03-02 00:00:00 TS -18.5000 180.000 main 144 107 O________OO___ jtwc_sh SH161950 -18.5000 180.000 -1 -18.5000 180.000 TC -18.5000 180.000 2 11 251
1950059S15188 1950 17 SP MM NOT_NAMED 1950-03-02 03:00:00 TS -18.6863 179.474 main 107 88 P________PP___ SH161950 -18.6773 179.492 -1 -18.6773 179.492 TC -18.7042 179.437 2 11 247
1950059S15188 1950 17 SP MM NOT_NAMED 1950-03-02 06:00:00 TS -18.9110 178.965 main 94 91 O________OP___ jtwc_sh SH161950 -18.9000 179.000 -1 -18.9000 179.000 TC -18.9329 178.895 2 11 243
1950059S15188 1950 17 SP MM NOT_NAMED 1950-03-02 09:00:00 TS -19.1834 178.449 main 102 102 P________PP___ SH161950 -19.1776 178.470 -1 -19.1776 178.470 TC -19.1950 178.406 2 11 237
1950059S15188 1950 17 SP MM NOT_NAMED 1950-03-02 12:00:00 TS -19.5000 178.000 main 134 134 O________OO___ jtwc_sh SH161950 -19.5000 178.000 -1 -19.5000 178.000 TC -19.5000 178.000 2 10 229
1950059S15188 1950 17 SP MM NOT_NAMED 1950-03-02 15:00:00 TS -19.8275 177.651 main 169 169 P________PP___ SH161950 -19.8274 177.640 -1 -19.8274 177.640 TC -19.8278 177.673 2 9 218
1950059S15188 1950 17 SP MM NOT_NAMED 1950-03-02 18:00:00 TS -20.2006 177.412 main 218 218 O________OP___ jtwc_sh SH161950 -20.2000 177.400 -1 -20.2000 177.400 TC -20.2018 177.435 2 9 205
1950059S15188 1950 17 SP MM NOT_NAMED 1950-03-02 21:00:00 TS -20.6166 177.263 main 264 264 P________PP___ SH161950 -20.6124 177.255 -1 -20.6124 177.255 TC -20.6249 177.280 2 9 192
1950059S15188 1950 17 SP MM NOT_NAMED 1950-03-03 00:00:00 TS -21.1000 177.200 main 321 321 O________OO___ jtwc_sh SH161950 -21.1000 177.200 -1 -21.1000 177.200 TC -21.1000 177.200 2 11 185
1950059S15188 1950 17 SP MM NOT_NAMED 1950-03-03 03:00:00 TS -21.6756 177.164 main 387 387 P________PP___ SH161950 -21.6850 177.170 -1 -21.6850 177.170 TC -21.6569 177.153 2 12 0
1950059S15188 1950 17 SP MM NOT_NAMED 1950-03-03 06:00:00 TS -22.2857 177.193 main 453 453 O________OP___ jtwc_sh SH161950 -22.3000 177.200 -1 -22.3000 177.200 TC -22.2572 177.179 2 12 175
1950059S15188 1950 17 SP MM NOT_NAMED 1950-03-03 09:00:00 TS -22.8713 177.269 main 518 518 P________PP___ SH161950 -22.8800 177.270 -1 -22.8800 177.270 TC -22.8539 177.266 2 11 170
1950059S15188 1950 17 SP MM NOT_NAMED 1950-03-03 12:00:00 TS -23.4000 177.400 main 572 572 O________OO___ jtwc_sh SH161950 -23.4000 177.400 -1 -23.4000 177.400 TC -23.4000 177.400 2 10 164
1950059S15188 1950 17 SP MM NOT_NAMED 1950-03-03 15:00:00 TS -23.8335 177.573 main 615 615 P________PP___ SH161950 -23.8300 177.585 -1 -23.8300 177.585 TC -23.8406 177.549 2 9 157
1950059S15188 1950 17 SP MM NOT_NAMED 1950-03-03 18:00:00 TS -24.2083 177.780 main 659 659 O________OP___ jtwc_sh SH161950 -24.2000 177.800 -1 -24.2000 177.800 TC -24.2249 177.740 2 8 153
1950059S15188 1950 17 SP MM NOT_NAMED 1950-03-03 21:00:00 TS -24.5622 177.982 main 704 704 P________PP___ SH161950 -24.5574 177.993 -1 -24.5574 177.993 TC -24.5718 177.961 2 8 151
1950059S15188 1950 17 SP MM NOT_NAMED 1950-03-04 00:00:00 TS -24.9000 178.200 main 737 737 O________OO___ jtwc_sh SH161950 -24.9000 178.200 -1 -24.9000 178.200 TC -24.9000 178.200 2 8 149
1950059S15188 1950 17 SP MM NOT_NAMED 1950-03-04 03:00:00 TS -25.2542 178.442 main 782 782 P________PP___ SH161950 -25.2575 178.443 -1 -25.2575 178.443 TC -25.2475 178.440 2 8 147
1950059S15188 1950 17 SP MM NOT_NAMED 1950-03-04 06:00:00 TS -25.5933 178.698 main 817 817 O________OP___ jtwc_sh SH161950 -25.6000 178.700 -1 -25.6000 178.700 TC -25.5800 178.693 2 8 145
1950059S15188 1950 17 SP MM NOT_NAMED 1950-03-04 09:00:00 TS -25.9092 178.955 main 853 853 P________PP___ SH161950 -25.9150 178.958 -1 -25.9150 178.958 TC -25.8975 178.949 2 8 143
1950059S15188 1950 17 SP MM NOT_NAMED 1950-03-04 12:00:00 TS -26.2000 179.200 main 889 889 O________OO___ jtwc_sh SH161950 -26.2000 179.200 -1 -26.2000 179.200 TC -26.2000 179.200 2 7 144
1950059S15188 1950 17 SP MM NOT_NAMED 1950-03-04 15:00:00 TS -26.4560 179.398 main 924 924 P________PP___ SH161950 -26.4499 179.400 -1 -26.4499 179.400 TC -26.4683 179.393 2 6 145
1950059S15188 1950 17 SP MM NOT_NAMED 1950-03-04 18:00:00 TS -26.7088 179.595 main 949 949 O________OP___ jtwc_sh SH161950 -26.7000 179.600 -1 -26.7000 179.600 TC -26.7263 179.585 2 6 145
1950059S15188 1950 17 SP MM NOT_NAMED 1950-03-04 21:00:00 TS -26.9836 179.812 main 986 986 P________PP___ SH161950 -26.9773 179.813 -1 -26.9773 179.813 TC -26.9962 179.809 2 7 143
1950059S15188 1950 17 SP MM NOT_NAMED 1950-03-05 00:00:00 TS -27.3000 180.100 main 1024 1024 O________OO___ jtwc_sh SH161950 -27.3000 -179.900 -1 -27.3000 180.100 TC -27.3000 -179.900 2 9 138
1950059S15188 1950 17 SP MM NOT_NAMED 1950-03-05 03:00:00 TS -27.6824 180.517 main 1029 1019 P________PP___ SH161950 -27.6850 -179.488 -1 -27.6850 -179.488 TC -27.6773 -179.474 2 11 135
1950059S15188 1950 17 SP MM NOT_NAMED 1950-03-05 06:00:00 TS -28.0955 181.006 main 1021 1013 O________OP___ jtwc_sh SH161950 -28.1000 -179.000 -1 -28.1000 181.000 TC -28.0865 -178.982 2 12 133
1950059S15188 1950 17 SP MM NOT_NAMED 1950-03-05 09:00:00 TS -28.5058 181.519 main 1017 1011 P________PP___ SH161950 -28.5076 -178.485 -1 -28.5076 -178.485 TC -28.5023 -178.474 2 12 133
1950059S15188 1950 17 SP MM NOT_NAMED 1950-03-05 12:00:00 TS -28.9000 182.000 main 1016 1006 O________OO___ jtwc_sh SH161950 -28.9000 -178.000 -1 -28.9000 182.000 TC -28.9000 -178.000 2 11 135
1950059S15188 1950 17 SP MM NOT_NAMED 1950-03-05 15:00:00 TS -29.2636 182.387 main 999 978 P________PP___ SH161950 -29.2648 -177.620 -1 -29.2648 -177.620 TC -29.2614 -177.600 2 9 138
1950059S15188 1950 17 SP MM NOT_NAMED 1950-03-05 18:00:00 TS -29.5972 182.712 main 978 959 O________OP___ jtwc_sh SH161950 -29.6000 -177.300 -1 -29.6000 182.700 TC -29.5916 -177.264 2 8 140
1950059S15188 1950 17 SP MM NOT_NAMED 1950-03-05 21:00:00 TS -29.9055 183.011 main 959 941 P________PP___ SH161950 -29.9077 -176.998 -1 -29.9077 -176.998 TC -29.9011 -176.972 2 8 140
1950059S15188 1950 17 SP MM NOT_NAMED 1950-03-06 00:00:00 TS -30.2000 183.300 main 941 O________OO___ jtwc_sh SH161950 -30.2000 -176.700 -1 -30.2000 183.300 TC -30.2000 -176.700 2 8 140

Digital Typhoon Data and Search

About IBTrACS Database

This database is a web-friendly format of International Best Track Archive for Climate Stewardship (IBTrACS), a global best track data archive curated by NOAA dating back to 1842.

Updated: 2021-12-08